sensor_id;sensor_type;location;lat;lon;timestamp;pressure;altitude;pressure_sealevel;temperature;humidity
4570;BME280;2297;51.442;6.996;2022-09-04T00:02:18;100196.16;;;18.49;58.75
4570;BME280;2297;51.442;6.996;2022-09-04T00:04:59;100195.28;;;18.49;58.58
4570;BME280;2297;51.442;6.996;2022-09-04T00:07:32;100206.00;;;18.49;58.71
4570;BME280;2297;51.442;6.996;2022-09-04T00:10:09;100201.41;;;18.51;58.64
4570;BME280;2297;51.442;6.996;2022-09-04T00:12:44;100204.06;;;18.51;58.48
4570;BME280;2297;51.442;6.996;2022-09-04T00:15:12;100211.16;;;18.52;58.58
4570;BME280;2297;51.442;6.996;2022-09-04T00:17:46;100207.72;;;18.50;58.38
4570;BME280;2297;51.442;6.996;2022-09-04T00:20:28;100212.47;;;18.60;58.13
4570;BME280;2297;51.442;6.996;2022-09-04T00:23:01;100212.88;;;18.53;58.27
4570;BME280;2297;51.442;6.996;2022-09-04T00:25:34;100207.88;;;18.47;58.44
4570;BME280;2297;51.442;6.996;2022-09-04T00:28:09;100201.59;;;18.48;58.39
4570;BME280;2297;51.442;6.996;2022-09-04T00:30:45;100208.91;;;18.44;58.53
4570;BME280;2297;51.442;6.996;2022-09-04T00:33:19;100212.50;;;18.43;58.42
4570;BME280;2297;51.442;6.996;2022-09-04T00:35:51;100207.59;;;18.35;58.64
4570;BME280;2297;51.442;6.996;2022-09-04T00:38:32;100206.63;;;18.36;58.57
4570;BME280;2297;51.442;6.996;2022-09-04T00:41:08;100210.47;;;18.64;57.74
4570;BME280;2297;51.442;6.996;2022-09-04T00:43:59;100210.44;;;18.80;57.21
4570;BME280;2297;51.442;6.996;2022-09-04T00:46:47;100207.53;;;18.85;56.85
4570;BME280;2297;51.442;6.996;2022-09-04T00:49:46;100215.66;;;18.83;56.94
4570;BME280;2297;51.442;6.996;2022-09-04T00:52:39;100214.75;;;18.83;56.82
4570;BME280;2297;51.442;6.996;2022-09-04T00:55:23;100207.72;;;18.82;56.93
4570;BME280;2297;51.442;6.996;2022-09-04T00:58:11;100216.69;;;18.81;56.94
4570;BME280;2297;51.442;6.996;2022-09-04T01:00:44;100220.47;;;18.76;57.01
4570;BME280;2297;51.442;6.996;2022-09-04T01:03:23;100211.50;;;18.77;57.13
4570;BME280;2297;51.442;6.996;2022-09-04T01:06:14;100220.81;;;18.70;57.14
4570;BME280;2297;51.442;6.996;2022-09-04T01:09:00;100214.78;;;18.67;57.19
4570;BME280;2297;51.442;6.996;2022-09-04T01:11:39;100215.81;;;18.64;57.30
4570;BME280;2297;51.442;6.996;2022-09-04T01:14:13;100223.16;;;18.60;57.49
4570;BME280;2297;51.442;6.996;2022-09-04T01:16:46;100219.47;;;18.63;57.48
4570;BME280;2297;51.442;6.996;2022-09-04T01:19:28;100219.78;;;18.57;57.47
4570;BME280;2297;51.442;6.996;2022-09-04T01:22:20;100219.78;;;18.57;57.53
4570;BME280;2297;51.442;6.996;2022-09-04T01:25:11;100226.16;;;18.54;57.70
4570;BME280;2297;51.442;6.996;2022-09-04T01:27:48;100223.59;;;18.53;57.77
4570;BME280;2297;51.442;6.996;2022-09-04T01:30:20;100225.47;;;18.51;57.89
4570;BME280;2297;51.442;6.996;2022-09-04T01:33:06;100218.25;;;18.53;57.81
4570;BME280;2297;51.442;6.996;2022-09-04T01:35:42;100229.78;;;18.53;57.98
4570;BME280;2297;51.442;6.996;2022-09-04T01:38:17;100230.72;;;18.52;57.82
4570;BME280;2297;51.442;6.996;2022-09-04T01:40:50;100232.53;;;18.52;57.91
4570;BME280;2297;51.442;6.996;2022-09-04T01:43:21;100233.56;;;18.49;58.06
4570;BME280;2297;51.442;6.996;2022-09-04T01:48:56;100235.63;;;18.44;58.09
4570;BME280;2297;51.442;6.996;2022-09-04T01:51:33;100236.63;;;18.41;58.13
4570;BME280;2297;51.442;6.996;2022-09-04T01:54:25;100237.00;;;18.35;58.49
4570;BME280;2297;51.442;6.996;2022-09-04T01:57:07;100237.59;;;18.40;58.28
4570;BME280;2297;51.442;6.996;2022-09-04T01:59:47;100244.03;;;18.36;58.52
4570;BME280;2297;51.442;6.996;2022-09-04T02:02:23;100243.38;;;18.33;58.64
4570;BME280;2297;51.442;6.996;2022-09-04T02:04:58;100245.06;;;18.34;58.68
4570;BME280;2297;51.442;6.996;2022-09-04T02:07:32;100242.34;;;18.35;58.55
4570;BME280;2297;51.442;6.996;2022-09-04T02:10:07;100248.31;;;18.40;58.44
4570;BME280;2297;51.442;6.996;2022-09-04T02:12:41;100253.03;;;18.35;58.73
4570;BME280;2297;51.442;6.996;2022-09-04T02:15:22;100262.94;;;18.33;58.65
4570;BME280;2297;51.442;6.996;2022-09-04T02:21:25;100267.50;;;18.31;58.61
4570;BME280;2297;51.442;6.996;2022-09-04T02:24:01;100265.94;;;18.27;58.89
4570;BME280;2297;51.442;6.996;2022-09-04T02:26:36;100264.06;;;18.29;58.67
4570;BME280;2297;51.442;6.996;2022-09-04T02:29:09;100271.63;;;18.21;58.97
4570;BME280;2297;51.442;6.996;2022-09-04T02:31:47;100270.59;;;18.23;59.13
4570;BME280;2297;51.442;6.996;2022-09-04T02:34:23;100271.28;;;18.27;59.25
4570;BME280;2297;51.442;6.996;2022-09-04T02:36:58;100270.41;;;18.26;59.12
4570;BME280;2297;51.442;6.996;2022-09-04T02:39:42;100277.25;;;18.32;58.87
4570;BME280;2297;51.442;6.996;2022-09-04T02:42:14;100277.25;;;18.32;58.69
4570;BME280;2297;51.442;6.996;2022-09-04T02:44:49;100283.69;;;18.28;59.03
4570;BME280;2297;51.442;6.996;2022-09-04T02:47:24;100284.06;;;18.04;59.78
4570;BME280;2297;51.442;6.996;2022-09-04T02:49:58;100284.38;;;18.16;59.41
4570;BME280;2297;51.442;6.996;2022-09-04T02:52:51;100284.06;;;18.04;59.82
4570;BME280;2297;51.442;6.996;2022-09-04T02:55:33;100289.25;;;18.07;59.69
4570;BME280;2297;51.442;6.996;2022-09-04T02:58:14;100282.94;;;18.08;59.86
4570;BME280;2297;51.442;6.996;2022-09-04T03:00:49;100286.41;;;18.10;59.73
4570;BME280;2297;51.442;6.996;2022-09-04T03:03:23;100290.81;;;18.11;59.79
4570;BME280;2297;51.442;6.996;2022-09-04T03:05:58;100280.31;;;17.91;60.59
4570;BME280;2297;51.442;6.996;2022-09-04T03:08:33;100292.97;;;18.05;60.11
4570;BME280;2297;51.442;6.996;2022-09-04T03:11:05;100297.41;;;18.04;60.29
4570;BME280;2297;51.442;6.996;2022-09-04T03:13:41;100295.72;;;18.03;60.26
4570;BME280;2297;51.442;6.996;2022-09-04T03:16:15;100295.72;;;18.03;60.25
4570;BME280;2297;51.442;6.996;2022-09-04T03:19:12;100293.63;;;18.08;60.22
4570;BME280;2297;51.442;6.996;2022-09-04T03:21:45;100291.75;;;18.10;60.08
4570;BME280;2297;51.442;6.996;2022-09-04T03:24:20;100289.88;;;18.12;60.18
4570;BME280;2297;51.442;6.996;2022-09-04T03:26:50;100289.88;;;18.12;60.24
4570;BME280;2297;51.442;6.996;2022-09-04T03:29:25;100284.53;;;18.12;60.14
4570;BME280;2297;51.442;6.996;2022-09-04T03:32:04;100297.81;;;18.14;60.10
4570;BME280;2297;51.442;6.996;2022-09-04T03:34:44;100298.97;;;18.08;60.30
4570;BME280;2297;51.442;6.996;2022-09-04T03:37:51;100300.88;;;18.06;60.42
4570;BME280;2297;51.442;6.996;2022-09-04T03:40:35;100301.66;;;18.08;60.32
4570;BME280;2297;51.442;6.996;2022-09-04T03:43:13;100297.28;;;18.07;60.36
4570;BME280;2297;51.442;6.996;2022-09-04T03:45:48;100297.41;;;18.04;60.56
4570;BME280;2297;51.442;6.996;2022-09-04T03:48:26;100303.88;;;18.00;60.53
4570;BME280;2297;51.442;6.996;2022-09-04T03:51:02;100298.78;;;17.95;60.73
4570;BME280;2297;51.442;6.996;2022-09-04T03:53:39;100306.72;;;17.97;60.81
4570;BME280;2297;51.442;6.996;2022-09-04T03:56:31;100308.44;;;17.98;60.53
4570;BME280;2297;51.442;6.996;2022-09-04T03:59:04;100313.00;;;17.96;60.57
4570;BME280;2297;51.442;6.996;2022-09-04T04:01:40;100315.50;;;17.99;60.44
4570;BME280;2297;51.442;6.996;2022-09-04T04:04:37;100315.66;;;17.96;60.33
4570;BME280;2297;51.442;6.996;2022-09-04T04:07:22;100317.56;;;17.94;60.21
4570;BME280;2297;51.442;6.996;2022-09-04T04:10:03;100324.63;;;17.95;60.29
4570;BME280;2297;51.442;6.996;2022-09-04T04:12:55;100318.34;;;17.96;60.23
4570;BME280;2297;51.442;6.996;2022-09-04T04:15:31;100320.63;;;17.86;60.50
4570;BME280;2297;51.442;6.996;2022-09-04T04:18:15;100321.47;;;17.87;60.17
4570;BME280;2297;51.442;6.996;2022-09-04T04:20:53;100312.53;;;17.88;60.24
4570;BME280;2297;51.442;6.996;2022-09-04T04:23:45;100320.63;;;17.86;60.21
4570;BME280;2297;51.442;6.996;2022-09-04T04:26:20;100321.78;;;17.81;60.44
4570;BME280;2297;51.442;6.996;2022-09-04T04:29:18;100327.47;;;17.74;60.69
4570;BME280;2297;51.442;6.996;2022-09-04T04:31:58;100325.00;;;17.70;60.74
4570;BME280;2297;51.442;6.996;2022-09-04T04:34:49;100319.66;;;17.70;60.78
4570;BME280;2297;51.442;6.996;2022-09-04T04:37:32;100336.25;;;17.76;60.68
4570;BME280;2297;51.442;6.996;2022-09-04T04:40:09;100343.16;;;17.81;60.48
4570;BME280;2297;51.442;6.996;2022-09-04T04:42:45;100333.34;;;17.81;60.32
4570;BME280;2297;51.442;6.996;2022-09-04T04:45:19;100337.81;;;17.81;60.36
4570;BME280;2297;51.442;6.996;2022-09-04T04:51:12;100348.81;;;17.74;60.53
4570;BME280;2297;51.442;6.996;2022-09-04T04:53:48;100350.56;;;17.75;60.35
4570;BME280;2297;51.442;6.996;2022-09-04T04:56:22;100356.75;;;17.76;60.24
4570;BME280;2297;51.442;6.996;2022-09-04T04:59:00;100362.94;;;17.76;60.15
4570;BME280;2297;51.442;6.996;2022-09-04T05:01:40;100360.28;;;17.76;60.05
4570;BME280;2297;51.442;6.996;2022-09-04T05:04:17;100360.91;;;17.82;59.84
4570;BME280;2297;51.442;6.996;2022-09-04T05:06:49;100360.78;;;17.85;59.68
4570;BME280;2297;51.442;6.996;2022-09-04T05:09:27;100363.38;;;17.86;59.79
4570;BME280;2297;51.442;6.996;2022-09-04T05:12:04;100363.44;;;17.85;59.93
4570;BME280;2297;51.442;6.996;2022-09-04T05:14:40;100371.28;;;17.88;59.82
4570;BME280;2297;51.442;6.996;2022-09-04T05:17:18;100368.00;;;17.83;59.74
4570;BME280;2297;51.442;6.996;2022-09-04T05:19:52;100376.81;;;17.85;59.85
4570;BME280;2297;51.442;6.996;2022-09-04T05:22:29;100371.47;;;17.85;59.86
4570;BME280;2297;51.442;6.996;2022-09-04T05:25:06;100380.63;;;17.79;60.26
4570;BME280;2297;51.442;6.996;2022-09-04T05:27:50;100394.13;;;17.76;60.40
4570;BME280;2297;51.442;6.996;2022-09-04T05:30:45;100398.63;;;17.75;60.26
4570;BME280;2297;51.442;6.996;2022-09-04T05:33:17;100403.97;;;17.75;60.45
4570;BME280;2297;51.442;6.996;2022-09-04T05:35:52;100407.41;;;17.77;60.59
4570;BME280;2297;51.442;6.996;2022-09-04T05:38:25;100417.31;;;17.75;60.67
4570;BME280;2297;51.442;6.996;2022-09-04T05:41:03;100417.25;;;17.77;60.77
4570;BME280;2297;51.442;6.996;2022-09-04T05:43:44;100421.41;;;17.83;60.62
4570;BME280;2297;51.442;6.996;2022-09-04T05:46:22;100425.00;;;17.82;60.70
4570;BME280;2297;51.442;6.996;2022-09-04T05:48:59;100438.16;;;17.86;60.61
4570;BME280;2297;51.442;6.996;2022-09-04T05:57:17;100431.78;;;17.89;60.75
4570;BME280;2297;51.442;6.996;2022-09-04T06:00:00;100437.81;;;17.92;60.52
4570;BME280;2297;51.442;6.996;2022-09-04T06:05:25;100440.84;;;18.04;60.33
4570;BME280;2297;51.442;6.996;2022-09-04T06:08:00;100448.63;;;18.08;60.25
4570;BME280;2297;51.442;6.996;2022-09-04T06:10:39;100449.41;;;18.10;60.11
4570;BME280;2297;51.442;6.996;2022-09-04T06:13:26;100450.06;;;18.16;60.14
4570;BME280;2297;51.442;6.996;2022-09-04T06:16:02;100448.31;;;18.15;60.14
4570;BME280;2297;51.442;6.996;2022-09-04T06:18:50;100449.75;;;18.22;60.05
4570;BME280;2297;51.442;6.996;2022-09-04T06:21:53;100454.63;;;18.31;59.74
4570;BME280;2297;51.442;6.996;2022-09-04T06:24:46;100460.28;;;18.42;59.49
4570;BME280;2297;51.442;6.996;2022-09-04T06:27:37;100464.72;;;18.43;59.54
4570;BME280;2297;51.442;6.996;2022-09-04T06:30:09;100463.19;;;18.38;59.53
4570;BME280;2297;51.442;6.996;2022-09-04T06:33:04;100465.16;;;18.34;59.77
4570;BME280;2297;51.442;6.996;2022-09-04T06:36:02;100465.31;;;18.31;59.87
4570;BME280;2297;51.442;6.996;2022-09-04T06:38:38;100459.16;;;18.29;60.06
4570;BME280;2297;51.442;6.996;2022-09-04T06:41:21;100466.00;;;18.35;59.70
4570;BME280;2297;51.442;6.996;2022-09-04T06:43:54;100471.25;;;18.19;60.70
4570;BME280;2297;51.442;6.996;2022-09-04T06:46:30;100464.97;;;18.37;60.07
4570;BME280;2297;51.442;6.996;2022-09-04T06:49:07;100461.53;;;18.35;60.09
4570;BME280;2297;51.442;6.996;2022-09-04T06:51:45;100461.53;;;18.35;60.15
4570;BME280;2297;51.442;6.996;2022-09-04T06:54:29;100464.53;;;18.47;59.77
4570;BME280;2297;51.442;6.996;2022-09-04T06:57:12;100467.84;;;18.52;59.75
4570;BME280;2297;51.442;6.996;2022-09-04T06:59:50;100467.94;;;18.50;59.87
4570;BME280;2297;51.442;6.996;2022-09-04T07:02:31;100472.22;;;18.35;60.35
4570;BME280;2297;51.442;6.996;2022-09-04T07:05:16;100482.16;;;18.51;59.85
4570;BME280;2297;51.442;6.996;2022-09-04T07:07:53;100480.59;;;18.47;59.63
4570;BME280;2297;51.442;6.996;2022-09-04T07:10:25;100475.25;;;18.47;59.79
4570;BME280;2297;51.442;6.996;2022-09-04T07:13:12;100479.25;;;18.55;59.53
4570;BME280;2297;51.442;6.996;2022-09-04T07:15:51;100483.25;;;18.47;59.97
4570;BME280;2297;51.442;6.996;2022-09-04T07:21:34;100485.44;;;18.73;59.13
4570;BME280;2297;51.442;6.996;2022-09-04T07:24:29;100489.53;;;18.81;58.87
4570;BME280;2297;51.442;6.996;2022-09-04T07:27:05;100498.81;;;18.73;59.42
4570;BME280;2297;51.442;6.996;2022-09-04T07:29:40;100486.53;;;18.87;59.13
4570;BME280;2297;51.442;6.996;2022-09-04T07:32:12;100495.09;;;18.93;58.96
4570;BME280;2297;51.442;6.996;2022-09-04T07:34:48;100489.81;;;18.92;59.02
4570;BME280;2297;51.442;6.996;2022-09-04T07:37:25;100494.97;;;19.12;58.67
4570;BME280;2297;51.442;6.996;2022-09-04T07:40:00;100495.59;;;19.18;58.47
4570;BME280;2297;51.442;6.996;2022-09-04T07:42:37;100503.78;;;19.15;58.69
4570;BME280;2297;51.442;6.996;2022-09-04T07:45:06;100495.81;;;19.13;58.55
4570;BME280;2297;51.442;6.996;2022-09-04T07:47:41;100500.50;;;19.09;58.81
4570;BME280;2297;51.442;6.996;2022-09-04T07:50:14;100507.75;;;19.07;58.78
4570;BME280;2297;51.442;6.996;2022-09-04T07:56:13;100514.63;;;19.29;58.49
4570;BME280;2297;51.442;6.996;2022-09-04T07:59:04;100523.19;;;19.36;58.02
4570;BME280;2297;51.442;6.996;2022-09-04T08:01:47;100522.16;;;19.38;58.14
4570;BME280;2297;51.442;6.996;2022-09-04T08:04:49;100531.19;;;19.53;57.78
4570;BME280;2297;51.442;6.996;2022-09-04T08:07:37;100522.19;;;19.54;57.49
4570;BME280;2297;51.442;6.996;2022-09-04T08:10:22;100526.16;;;19.63;57.10
4570;BME280;2297;51.442;6.996;2022-09-04T08:13:08;100532.22;;;19.67;57.24
4570;BME280;2297;51.442;6.996;2022-09-04T08:15:40;100535.00;;;19.65;57.43
4570;BME280;2297;51.442;6.996;2022-09-04T08:21:11;100527.56;;;19.86;56.95
4570;BME280;2297;51.442;6.996;2022-09-04T08:23:53;100535.97;;;19.96;56.86
4570;BME280;2297;51.442;6.996;2022-09-04T08:26:28;100527.75;;;19.99;56.70
4570;BME280;2297;51.442;6.996;2022-09-04T08:29:09;100536.66;;;20.16;56.23
4570;BME280;2297;51.442;6.996;2022-09-04T08:31:41;100537.75;;;20.27;56.10
4570;BME280;2297;51.442;6.996;2022-09-04T08:37:06;100544.28;;;20.38;55.95
4570;BME280;2297;51.442;6.996;2022-09-04T08:39:46;100541.66;;;20.52;55.25
4570;BME280;2297;51.442;6.996;2022-09-04T08:42:36;100541.41;;;20.57;55.18
4570;BME280;2297;51.442;6.996;2022-09-04T08:51:53;100548.19;;;20.78;54.57
4570;BME280;2297;51.442;6.996;2022-09-04T09:01:06;100553.03;;;21.02;53.57
4570;BME280;2297;51.442;6.996;2022-09-04T09:04:03;100552.94;;;21.04;53.51
4570;BME280;2297;51.442;6.996;2022-09-04T09:07:21;100553.25;;;21.14;53.27
4570;BME280;2297;51.442;6.996;2022-09-04T09:13:34;100553.66;;;21.36;52.92
4570;BME280;2297;51.442;6.996;2022-09-04T09:16:18;100559.22;;;21.48;52.35
4570;BME280;2297;51.442;6.996;2022-09-04T09:21:43;100550.38;;;21.60;51.87
4570;BME280;2297;51.442;6.996;2022-09-04T09:27:39;100555.34;;;21.66;51.73
4570;BME280;2297;51.442;6.996;2022-09-04T09:30:15;100558.25;;;21.63;51.20
4570;BME280;2297;51.442;6.996;2022-09-04T09:42:29;100547.13;;;22.11;50.39
4570;BME280;2297;51.442;6.996;2022-09-04T09:45:20;100547.53;;;21.90;50.27
4570;BME280;2297;51.442;6.996;2022-09-04T09:51:37;100558.72;;;22.12;49.05
4570;BME280;2297;51.442;6.996;2022-09-04T09:54:30;100560.00;;;22.33;48.85
4570;BME280;2297;51.442;6.996;2022-09-04T09:57:28;100547.31;;;22.35;49.40
4570;BME280;2297;51.442;6.996;2022-09-04T10:00:11;100555.03;;;22.27;48.88
4570;BME280;2297;51.442;6.996;2022-09-04T10:06:10;100550.56;;;22.40;48.15
4570;BME280;2297;51.442;6.996;2022-09-04T10:21:49;100555.97;;;23.06;46.81
4570;BME280;2297;51.442;6.996;2022-09-04T10:24:41;100554.34;;;23.30;46.10
4570;BME280;2297;51.442;6.996;2022-09-04T10:27:45;100551.38;;;23.34;46.34
4570;BME280;2297;51.442;6.996;2022-09-04T10:30:16;100555.78;;;23.35;45.96
4570;BME280;2297;51.442;6.996;2022-09-04T10:33:14;100558.03;;;23.41;45.73
4570;BME280;2297;51.442;6.996;2022-09-04T10:35:55;100563.41;;;23.41;46.11
4570;BME280;2297;51.442;6.996;2022-09-04T10:38:35;100561.25;;;23.47;46.29
4570;BME280;2297;51.442;6.996;2022-09-04T10:41:36;100555.44;;;23.53;45.61
4570;BME280;2297;51.442;6.996;2022-09-04T10:44:30;100556.56;;;23.74;45.69
4570;BME280;2297;51.442;6.996;2022-09-04T10:47:10;100552.75;;;23.90;44.73
4570;BME280;2297;51.442;6.996;2022-09-04T10:49:55;100562.34;;;23.94;44.77
4570;BME280;2297;51.442;6.996;2022-09-04T10:56:19;100558.19;;;24.14;43.87
4570;BME280;2297;51.442;6.996;2022-09-04T10:59:06;100566.00;;;24.30;43.76
4570;BME280;2297;51.442;6.996;2022-09-04T11:02:01;100559.78;;;24.17;43.30
4570;BME280;2297;51.442;6.996;2022-09-04T11:05:12;100553.84;;;24.36;42.72
4570;BME280;2297;51.442;6.996;2022-09-04T11:08:09;100554.97;;;24.33;42.84
4570;BME280;2297;51.442;6.996;2022-09-04T11:10:49;100553.41;;;24.42;43.47
4570;BME280;2297;51.442;6.996;2022-09-04T11:13:45;100550.38;;;24.47;42.96
4570;BME280;2297;51.442;6.996;2022-09-04T11:16:45;100548.75;;;24.68;42.68
4570;BME280;2297;51.442;6.996;2022-09-04T11:19:35;100546.53;;;24.38;41.75
4570;BME280;2297;51.442;6.996;2022-09-04T11:25:43;100558.56;;;24.45;41.04
4570;BME280;2297;51.442;6.996;2022-09-04T11:28:47;100555.69;;;24.84;40.35
4570;BME280;2297;51.442;6.996;2022-09-04T11:31:34;100556.66;;;24.94;40.30
4570;BME280;2297;51.442;6.996;2022-09-04T11:43:23;100555.47;;;24.38;41.29
4570;BME280;2297;51.442;6.996;2022-09-04T11:46:15;100551.41;;;24.57;41.07
4570;BME280;2297;51.442;6.996;2022-09-04T11:52:13;100545.88;;;25.05;39.60
4570;BME280;2297;51.442;6.996;2022-09-04T11:55:08;100553.22;;;24.92;39.96
4570;BME280;2297;51.442;6.996;2022-09-04T11:57:51;100550.34;;;24.71;40.13
4570;BME280;2297;51.442;6.996;2022-09-04T12:00:21;100560.16;;;24.48;40.96
4570;BME280;2297;51.442;6.996;2022-09-04T12:03:24;100558.69;;;24.43;40.88
4570;BME280;2297;51.442;6.996;2022-09-04T12:06:14;100554.97;;;24.33;40.44
4570;BME280;2297;51.442;6.996;2022-09-04T12:09:06;100556.88;;;24.44;39.98
4570;BME280;2297;51.442;6.996;2022-09-04T12:15:06;100551.28;;;25.05;38.32
4570;BME280;2297;51.442;6.996;2022-09-04T12:18:08;100555.97;;;25.15;38.17
4570;BME280;2297;51.442;6.996;2022-09-04T12:21:11;100555.59;;;25.08;38.54
4570;BME280;2297;51.442;6.996;2022-09-04T12:24:12;100556.69;;;25.05;38.29
4570;BME280;2297;51.442;6.996;2022-09-04T12:26:59;100560.41;;;25.27;38.22
4570;BME280;2297;51.442;6.996;2022-09-04T12:32:25;100554.25;;;25.59;38.31
4570;BME280;2297;51.442;6.996;2022-09-04T12:38:24;100547.31;;;26.12;36.62
4570;BME280;2297;51.442;6.996;2022-09-04T12:40:59;100552.03;;;26.42;36.27
4570;BME280;2297;51.442;6.996;2022-09-04T12:43:39;100552.41;;;26.37;35.35
4570;BME280;2297;51.442;6.996;2022-09-04T12:46:19;100553.75;;;26.43;34.96
4570;BME280;2297;51.442;6.996;2022-09-04T12:49:00;100548.47;;;26.30;35.18
4570;BME280;2297;51.442;6.996;2022-09-04T12:51:31;100548.97;;;26.24;35.02
4570;BME280;2297;51.442;6.996;2022-09-04T12:54:27;100559.56;;;26.27;34.91
4570;BME280;2297;51.442;6.996;2022-09-04T12:57:12;100558.56;;;26.39;34.23
4570;BME280;2297;51.442;6.996;2022-09-04T12:59:56;100558.06;;;26.88;34.19
4570;BME280;2297;51.442;6.996;2022-09-04T13:02:36;100555.34;;;27.09;33.67
4570;BME280;2297;51.442;6.996;2022-09-04T13:05:26;100556.59;;;27.26;33.58
4570;BME280;2297;51.442;6.996;2022-09-04T13:08:02;100552.44;;;27.53;33.74
4570;BME280;2297;51.442;6.996;2022-09-04T13:10:41;100552.34;;;27.64;33.35
4570;BME280;2297;51.442;6.996;2022-09-04T13:13:21;100555.06;;;27.74;33.11
4570;BME280;2297;51.442;6.996;2022-09-04T13:15:56;100559.59;;;27.54;33.23
4570;BME280;2297;51.442;6.996;2022-09-04T13:18:42;100556.75;;;27.03;33.51
4570;BME280;2297;51.442;6.996;2022-09-04T13:21:22;100563.56;;;26.98;34.23
4570;BME280;2297;51.442;6.996;2022-09-04T13:24:02;100559.75;;;26.89;34.61
4570;BME280;2297;51.442;6.996;2022-09-04T13:26:46;100559.44;;;26.29;35.11
4570;BME280;2297;51.442;6.996;2022-09-04T13:29:28;100557.78;;;26.05;35.62
4570;BME280;2297;51.442;6.996;2022-09-04T13:32:12;100553.63;;;26.33;35.20
4570;BME280;2297;51.442;6.996;2022-09-04T13:34:56;100559.31;;;26.19;35.48
4570;BME280;2297;51.442;6.996;2022-09-04T13:37:30;100557.56;;;26.29;35.32
4570;BME280;2297;51.442;6.996;2022-09-04T13:43:37;100556.22;;;26.67;35.06
4570;BME280;2297;51.442;6.996;2022-09-04T13:46:11;100566.19;;;26.88;34.70
4570;BME280;2297;51.442;6.996;2022-09-04T13:48:41;100562.63;;;26.87;34.79
4570;BME280;2297;51.442;6.996;2022-09-04T13:51:12;100565.50;;;26.74;34.64
4570;BME280;2297;51.442;6.996;2022-09-04T13:53:57;100564.72;;;26.63;34.77
4570;BME280;2297;51.442;6.996;2022-09-04T13:56:31;100570.66;;;26.56;34.77
4570;BME280;2297;51.442;6.996;2022-09-04T13:59:03;100570.63;;;26.24;34.56
4570;BME280;2297;51.442;6.996;2022-09-04T14:01:35;100571.44;;;26.47;34.60
4570;BME280;2297;51.442;6.996;2022-09-04T14:04:07;100576.00;;;26.47;35.11
4570;BME280;2297;51.442;6.996;2022-09-04T14:06:36;100580.22;;;26.39;34.64
4570;BME280;2297;51.442;6.996;2022-09-04T14:09:04;100583.59;;;26.53;35.00
4570;BME280;2297;51.442;6.996;2022-09-04T14:15:15;100577.81;;;26.57;33.82
4570;BME280;2297;51.442;6.996;2022-09-04T14:17:52;100581.22;;;26.92;33.81
4570;BME280;2297;51.442;6.996;2022-09-04T14:20:26;100575.97;;;27.21;33.24
4570;BME280;2297;51.442;6.996;2022-09-04T14:23:03;100572.84;;;27.26;32.71
4570;BME280;2297;51.442;6.996;2022-09-04T14:25:38;100572.94;;;27.46;32.75
4570;BME280;2297;51.442;6.996;2022-09-04T14:28:14;100576.47;;;27.36;32.79
4570;BME280;2297;51.442;6.996;2022-09-04T14:30:54;100579.19;;;27.36;33.26
4570;BME280;2297;51.442;6.996;2022-09-04T14:33:27;100571.94;;;27.16;32.98
4570;BME280;2297;51.442;6.996;2022-09-04T14:36:09;100574.47;;;27.07;32.69
4570;BME280;2297;51.442;6.996;2022-09-04T14:38:49;100569.50;;;26.92;32.90
4570;BME280;2297;51.442;6.996;2022-09-04T14:41:31;100571.03;;;27.05;33.19
4570;BME280;2297;51.442;6.996;2022-09-04T14:44:11;100565.97;;;27.22;34.03
4570;BME280;2297;51.442;6.996;2022-09-04T14:46:52;100567.53;;;27.46;33.65
4570;BME280;2297;51.442;6.996;2022-09-04T14:49:26;100570.59;;;27.62;34.08
4570;BME280;2297;51.442;6.996;2022-09-04T14:51:59;100562.53;;;27.82;32.80
4570;BME280;2297;51.442;6.996;2022-09-04T14:54:29;100563.44;;;28.02;33.01
4570;BME280;2297;51.442;6.996;2022-09-04T14:56:59;100558.06;;;28.31;32.83
4570;BME280;2297;51.442;6.996;2022-09-04T14:59:33;100554.06;;;28.65;32.34
4570;BME280;2297;51.442;6.996;2022-09-04T15:02:14;100566.72;;;29.03;31.09
4570;BME280;2297;51.442;6.996;2022-09-04T15:04:46;100557.19;;;29.37;30.00
4570;BME280;2297;51.442;6.996;2022-09-04T15:07:22;100562.88;;;29.44;28.81
4570;BME280;2297;51.442;6.996;2022-09-04T15:10:05;100567.47;;;28.96;28.31
4570;BME280;2297;51.442;6.996;2022-09-04T15:12:36;100566.31;;;28.98;28.44
4570;BME280;2297;51.442;6.996;2022-09-04T15:15:09;100570.59;;;29.01;28.08
4570;BME280;2297;51.442;6.996;2022-09-04T15:17:46;100564.88;;;29.14;27.96
4570;BME280;2297;51.442;6.996;2022-09-04T15:20:19;100567.72;;;29.22;27.61
4570;BME280;2297;51.442;6.996;2022-09-04T15:22:52;100560.44;;;29.13;28.08
4570;BME280;2297;51.442;6.996;2022-09-04T15:25:37;100560.56;;;29.01;28.20
4570;BME280;2297;51.442;6.996;2022-09-04T15:28:18;100566.19;;;29.10;28.24
4570;BME280;2297;51.442;6.996;2022-09-04T15:31:01;100560.84;;;29.18;27.84
4570;BME280;2297;51.442;6.996;2022-09-04T15:33:33;100564.25;;;29.20;27.80
4570;BME280;2297;51.442;6.996;2022-09-04T15:36:05;100556.00;;;29.12;27.71
4570;BME280;2297;51.442;6.996;2022-09-04T15:38:33;100557.34;;;29.35;27.76
4570;BME280;2297;51.442;6.996;2022-09-04T15:41:05;100561.53;;;29.67;28.20
4570;BME280;2297;51.442;6.996;2022-09-04T15:43:36;100554.91;;;29.98;27.31
4570;BME280;2297;51.442;6.996;2022-09-04T15:46:09;100554.53;;;30.29;27.10
4570;BME280;2297;51.442;6.996;2022-09-04T15:48:45;100561.69;;;30.66;26.84
4570;BME280;2297;51.442;6.996;2022-09-04T15:51:22;100552.41;;;31.03;26.37
4570;BME280;2297;51.442;6.996;2022-09-04T15:54:12;100554.88;;;31.41;25.41
4570;BME280;2297;51.442;6.996;2022-09-04T15:56:43;100550.19;;;31.59;25.63
4570;BME280;2297;51.442;6.996;2022-09-04T15:59:15;100559.81;;;31.80;25.61
4570;BME280;2297;51.442;6.996;2022-09-04T16:01:47;100559.63;;;31.65;24.88
4570;BME280;2297;51.442;6.996;2022-09-04T16:04:21;100561.00;;;31.77;25.20
4570;BME280;2297;51.442;6.996;2022-09-04T16:06:54;100555.72;;;31.84;25.22
4570;BME280;2297;51.442;6.996;2022-09-04T16:09:30;100552.19;;;31.92;25.49
4570;BME280;2297;51.442;6.996;2022-09-04T16:12:03;100560.16;;;31.77;24.60
4570;BME280;2297;51.442;6.996;2022-09-04T16:14:41;100549.53;;;31.65;24.22
4570;BME280;2297;51.442;6.996;2022-09-04T16:17:11;100552.84;;;31.43;24.48
4570;BME280;2297;51.442;6.996;2022-09-04T16:19:45;100557.41;;;31.08;25.29